x

Shumagin Islands - 85nm South Of Sand Point, Ak (46075) Wave Buoy

5:50pm - Tue 2nd Jun 2015 All times are UTC.

  • Sig Wave height 3.6ft
  • Peak Period 9s
  • Average Period 5s
  • Wind
    13mph, 18mph gusts
  • Sea Temp 46°f
  • Air Temp 45°f
  • Sea Pressure 1004.5mb

More Historic Weather Station data

Upgrade to MSW Pro to gain access to the past 30 days of data for over 8000 Wavebouys and Weather Stations around the globe.

Join Pro

Comparision Forecast

View Surf forecast
   
Tue 06/02 5:50pm 3.5ft 9s 5s 13 18 mph 1004.5mb 46f 45f
4:50pm 3.5ft 9s 5s 11 13 mph 1004.6mb 46f 45f
3:50pm 4ft 8s 6s 9 13 mph 1004.8mb 46f 45f
2:50pm 4ft 9s 6s 11 13 mph 1005.2mb 46f 44f
1:50pm 4ft 9s 6s 11 13 mph 1005.7mb 46f 43f
12:50pm 3.5ft 9s 6s 11
mph
1006.1mb 46f 43f
11:50am 3.5ft 7s 6s 9 11 mph 1006.4mb 46f 43f
10:50am 3.5ft 10s 6s 7 9 mph 1006.7mb 46f 43f
9:50am 3.5ft 9s 6s 7 9 mph 1007.3mb 46f 44f
8:50am 3.5ft 14s 6s 4 7 mph 1007.8mb 47f 44f
7:50am 3.5ft 10s 6s 4 7 mph 1008mb 47f 44f
6:50am 3.5ft 9s 7s 4 7 mph 1007.9mb 47f 44f
5:50am 3.5ft 9s 6s 2 4 mph 1008.2mb 47f 43f
4:50am 3.5ft 10s 7s 2 4 mph 1008.5mb 47f 43f
3:50am 3.5ft 10s 7s  -  2 mph 1009.1mb 47f 42f
2:50am 4ft 10s 7s 4 7 mph 1009.4mb 48f 42f
1:50am 4ft 8s 7s 4 7 mph 1009.8mb 47f 45f
12:50am 4.5ft 8s 7s 4 7 mph 1010.1mb 47f 46f
Mon 06/01 11:50pm 4ft 10s 7s 4
mph
1010.5mb 47f 47f
10:50pm 4ft 9s 7s  -  2 mph 1011.1mb 47f 46f
9:50pm 4ft 10s 7s 4 7 mph 1011.5mb 47f 44f
8:50pm 3.5ft 10s 7s 4 7 mph 1011.7mb 46f 45f
7:50pm 3.5ft 10s 7s 4
mph
1012.1mb 46f 46f
6:50pm 4.5ft 10s 7s 7 9 mph 1012.4mb 46f 44f
5:50pm 5ft 10s 7s 4
mph
1012.5mb 46f 44f
4:50pm 4.5ft 10s 7s 7 9 mph 1012.8mb 46f 44f
3:50pm 4.5ft 11s 7s 4
mph
1012.9mb 46f 44f
2:50pm 4.5ft 11s 7s 4 7 mph 1013.1mb 46f 44f
1:50pm 5ft 11s 7s 4 7 mph 1013.3mb 46f 44f
12:50pm 4.5ft 10s 7s 7 9 mph 1013.7mb 45f 44f
11:50am 5ft 11s 7s 7 9 mph 1014mb 46f 44f
10:50am 5ft 11s 8s 9 11 mph 1014.4mb 46f 44f
9:50am 5ft 11s 7s 9 11 mph 1014.9mb 46f 44f
8:50am 5.5ft 10s 7s 9 11 mph 1015mb 46f 44f
7:50am 5ft 11s 7s 11 13 mph 1015.1mb 46f 44f
6:50am 5ft 11s 6s 9 13 mph 1014.9mb 46f 44f
5:50am 6ft 11s 7s 11 13 mph 1015mb 46f 45f
4:50am 5ft 10s 6s 11 16 mph 1015.1mb 46f 45f
3:50am 5ft 10s 6s 13 16 mph 1015.2mb 46f 46f
2:50am 6ft 11s 6s 16 18 mph 1015.6mb 46f 46f
1:50am 6ft 11s 7s 13 18 mph 1015.7mb 46f 46f
12:50am 6.5ft 11s 7s 16 18 mph 1016mb 46f 46f
Sun 05/31 11:50pm 6.5ft 11s 7s 16 20 mph 1016.1mb 46f 46f
10:50pm 6ft 11s 7s 16 18 mph 1016.3mb 46f 46f
9:50pm 7ft 11s 7s 16 18 mph 1016.4mb 46f 46f
8:50pm 6ft 11s 7s 16 20 mph 1016.6mb 46f 45f
7:50pm 6.5ft 11s 7s 16 20 mph 1016.7mb 46f 44f
6:50pm 7ft 11s 7s 18 20 mph 1016.9mb 46f 43f
5:50pm 7ft 11s 7s 16 20 mph 1016.9mb 46f 43f
4:50pm 7ft 11s 7s 16 18 mph 1016.7mb 46f 44f
3:50pm 7.5ft 11s 7s 16 18 mph 1016.8mb 46f 44f
2:50pm 6ft 11s 7s 16 18 mph 1017mb 45f 44f
1:50pm 7ft 10s 8s 13 18 mph 1017.1mb 46f 44f
12:50pm 6.5ft 11s 8s 11 13 mph 1017.2mb 45f 44f
11:50am 7ft 11s 8s 11 13 mph 1017.4mb 46f 44f
10:50am 7ft 11s 8s 11 16 mph 1017.6mb 46f 44f
9:50am 7ft 11s 9s 9 13 mph 1017.8mb 46f 44f
8:50am 6.5ft 11s 8s 9 11 mph 1018mb 46f 44f
7:50am 8ft 12s 9s 11 13 mph 1018.2mb 46f 44f
6:50am 7ft 11s 8s 11 13 mph 1018.3mb 46f 44f
5:50am 8ft 11s 8s 11 13 mph 1018.3mb 46f 44f
4:50am 8ft 11s 8s 11 13 mph 1018.4mb 46f 44f
3:50am 8.5ft 11s 8s 11 13 mph 1018.5mb 46f 45f
2:50am 9.5ft 11s 9s 11 13 mph 1018.8mb 46f 46f
1:50am 9ft 12s 8s 11 13 mph 1019mb 46f 45f
12:50am 9ft 11s 8s 11 13 mph 1019mb 46f 45f
Sat 05/30 11:50pm 9ft 11s 9s 11 13 mph 1019.1mb 46f 46f
10:50pm 7.5ft 10s 8s 11 13 mph 1018.9mb 46f 46f
9:50pm 8ft 11s 8s 9 11 mph 1019.2mb 45f 45f
8:50pm 9ft 12s 9s 9 11 mph 1019.2mb 45f 45f
7:50pm 8ft 11s 8s 9 13 mph 1019.2mb 45f 44f
6:50pm 7ft 12s 8s 11 13 mph 1018.9mb 45f 44f
5:50pm 8ft 12s 8s 11 13 mph 1018.8mb 45f 44f
4:50pm 7ft 12s 8s 11 13 mph 1018.5mb 45f 44f
3:50pm 8.5ft 12s 8s 4 7 mph 1018.5mb 45f 44f
2:50pm 8.5ft 11s 8s 2 4 mph 1018.3mb 45f 44f
1:50pm 9ft 13s 8s 4 7 mph 1018.1mb 45f 44f
12:50pm 8ft 14s 8s 4 7 mph 1018mb 45f 44f
11:50am 8ft 12s 8s 7 9 mph 1018.2mb 45f 44f
10:50am 8ft 13s 8s 7 9 mph 1018.1mb 45f 44f
9:50am 7ft 13s 7s 7 9 mph 1018.3mb 45f 44f
8:50am 7ft 10s 7s 7
mph
1018.5mb 45f 45f
7:50am 6.5ft 8s 6s 7 9 mph 1018.7mb 45f 45f
6:50am 6.5ft 8s 6s 9 11 mph 1018.8mb 45f 45f
5:50am 6ft 8s 6s 9 11 mph 1018.6mb 45f 45f
4:50am 6ft 8s 6s 11 13 mph 1018.7mb 45f 45f
3:50am 6.5ft 8s 6s 11 13 mph 1018.6mb 45f 45f
2:50am 6.5ft 9s 6s 11 16 mph 1018.8mb 45f 45f
1:50am 6ft 9s 6s 13 16 mph 1019.3mb 45f 45f
12:50am 6.5ft 6s 6s 13 16 mph 1019.6mb 45f 45f
Fri 05/29 11:50pm 7ft 9s 6s 13 16 mph 1019.7mb 45f 45f
10:50pm 7ft 10s 6s 13 16 mph 1019.9mb 45f 45f
9:50pm 6.5ft 6s 6s 13 18 mph 1020mb 45f 45f
8:50pm 6.5ft 6s 6s 13 18 mph 1020mb 45f 45f
7:50pm 6.5ft 6s 5s 16 18 mph 1019.8mb 45f 45f
6:50pm 7ft 6s 6s 16 20 mph 1019.8mb 45f 45f